createdAt,value
2023-01-29T05:04:32.251Z,-2.91
2023-01-29T05:08:37.218Z,-2.88
2023-01-29T05:12:41.632Z,-2.84
2023-01-29T05:16:46.510Z,-2.80
2023-01-29T05:20:51.177Z,-2.84
2023-01-29T05:24:53.832Z,-2.91
2023-01-29T05:28:56.394Z,-2.86
2023-01-29T05:32:58.950Z,-2.82
2023-01-29T05:37:02.833Z,-2.81
2023-01-29T05:41:11.698Z,-2.80
2023-01-29T05:45:14.319Z,-2.79
2023-01-29T05:49:17.719Z,-2.68
2023-01-29T05:53:21.661Z,-2.64
2023-01-29T05:57:24.198Z,-2.57
2023-01-29T06:01:27.392Z,-2.42
2023-01-29T06:05:29.910Z,-2.35
2023-01-29T06:09:33.751Z,-2.29
2023-01-29T06:13:36.394Z,-2.17
2023-01-29T06:17:38.960Z,-2.18
2023-01-29T06:21:41.478Z,-2.04
2023-01-29T06:25:45.346Z,-1.94
2023-01-29T06:29:47.995Z,-1.94
2023-01-29T06:33:50.546Z,-1.88
2023-01-29T06:37:53.080Z,-1.96
2023-01-29T06:41:56.967Z,-1.92
2023-01-29T06:45:59.545Z,-1.90
2023-01-29T06:50:02.231Z,-1.77
2023-01-29T06:54:06.347Z,-1.70
2023-01-29T06:58:12.001Z,-1.69
2023-01-29T07:02:15.057Z,-1.59
2023-01-29T07:06:17.677Z,-1.56
2023-01-29T07:10:20.171Z,-1.51
2023-01-29T07:14:24.007Z,-1.45
2023-01-29T07:18:26.602Z,-1.37
2023-01-29T07:22:29.092Z,-1.52
2023-01-29T07:26:31.603Z,-1.46
2023-01-29T07:30:36.134Z,-1.27
2023-01-29T07:34:38.662Z,-1.18
2023-01-29T07:38:41.448Z,-1.06
2023-01-29T07:42:44.182Z,-1.17
2023-01-29T07:46:48.123Z,-1.09
2023-01-29T07:50:55.825Z,-1.14
2023-01-29T07:54:58.458Z,-1.01
2023-01-29T07:59:01.161Z,-0.86
2023-01-29T08:03:06.630Z,-0.72
2023-01-29T08:07:09.405Z,-0.87
2023-01-29T08:11:11.917Z,-0.86
2023-01-29T08:15:14.406Z,-0.71
2023-01-29T08:19:18.330Z,-0.41
2023-01-29T08:23:20.967Z,-0.26
2023-01-29T08:27:23.489Z,-0.08
2023-01-29T08:31:26.148Z,0.03
2023-01-29T08:35:30.179Z,-0.08
2023-01-29T08:39:33.773Z,-0.10
2023-01-29T08:43:38.456Z,0.05
2023-01-29T08:47:46.399Z,0.03
2023-01-29T08:51:51.345Z,0.19
2023-01-29T08:55:54.886Z,0.33
2023-01-29T08:59:57.400Z,0.45
2023-01-29T09:04:00.044Z,0.56
2023-01-29T09:08:04.502Z,0.62
2023-01-29T09:12:07.693Z,0.64
2023-01-29T09:16:10.752Z,0.57
2023-01-29T09:20:13.553Z,0.70
2023-01-29T09:24:17.771Z,0.78
2023-01-29T09:28:20.275Z,0.85
2023-01-29T09:32:49.792Z,1.06
2023-01-29T09:36:45.308Z,1.14
2023-01-29T09:40:57.792Z,1.22
2023-01-29T09:45:06.379Z,1.48
2023-01-29T09:49:16.666Z,1.64
2023-01-29T09:53:22.591Z,1.67
2023-01-29T09:57:34.249Z,1.84
2023-01-29T10:01:46.832Z,1.99
2023-01-29T10:06:06.395Z,2.16
2023-01-29T10:10:28.405Z,2.31
2023-01-29T10:14:41.353Z,2.48
2023-01-29T10:19:10.124Z,2.70
2023-01-29T10:23:22.573Z,2.86
2023-01-29T10:27:32.813Z,2.73
2023-01-29T10:31:40.676Z,2.76
2023-01-29T10:35:49.514Z,2.86
2023-01-29T10:39:52.382Z,2.92
2023-01-29T10:44:06.825Z,3.13
2023-01-29T10:48:41.351Z,2.98
2023-01-29T10:52:58.074Z,2.92
2023-01-29T10:57:14.160Z,3.08
2023-01-29T11:01:17.152Z,3.36
2023-01-29T11:05:32.507Z,3.17
2023-01-29T11:09:41.000Z,3.18
2023-01-29T11:13:49.679Z,3.42
2023-01-29T11:18:11.427Z,3.40
2023-01-29T11:22:17.544Z,3.48
2023-01-29T11:26:23.882Z,3.45
2023-01-29T11:30:28.069Z,3.19
2023-01-29T11:34:31.917Z,3.36
2023-01-29T11:38:35.899Z,3.63
2023-01-29T11:42:38.432Z,3.64
2023-01-29T11:46:41.001Z,3.81
2023-01-29T11:50:44.009Z,3.79
2023-01-29T11:54:51.917Z,3.88
2023-01-29T11:58:57.527Z,3.66
2023-01-29T12:03:07.058Z,3.81
2023-01-29T12:07:15.558Z,4.06
2023-01-29T12:11:26.540Z,3.97
2023-01-29T12:15:29.061Z,3.96
2023-01-29T12:19:39.178Z,3.74
2023-01-29T12:23:48.512Z,3.67
2023-01-29T12:27:59.546Z,3.49
2023-01-29T12:32:11.334Z,3.50
2023-01-29T12:36:19.470Z,3.57
2023-01-29T12:40:26.187Z,3.36
2023-01-29T12:44:34.671Z,3.41
2023-01-29T12:48:42.406Z,3.31
2023-01-29T12:52:51.053Z,3.18
2023-01-29T12:56:59.167Z,3.25
2023-01-29T13:01:07.705Z,3.03
2023-01-29T13:05:21.652Z,3.03
2023-01-29T13:09:28.023Z,2.90
2023-01-29T13:13:33.904Z,3.04
2023-01-29T13:17:42.495Z,2.86
2023-01-29T13:21:46.533Z,2.99
2023-01-29T13:25:51.953Z,2.85
2023-01-29T13:29:57.146Z,2.92
2023-01-29T13:34:07.021Z,2.90
2023-01-29T13:38:25.204Z,3.10
2023-01-29T13:42:39.584Z,3.17
2023-01-29T13:46:42.855Z,3.07
2023-01-29T13:50:47.962Z,2.94
2023-01-29T13:54:53.640Z,3.07
2023-01-29T13:58:57.791Z,3.03
2023-01-29T14:04:04.074Z,3.19
2023-01-29T14:08:39.026Z,2.99
2023-01-29T14:12:42.779Z,3.09
2023-01-29T14:16:45.436Z,3.16
2023-01-29T14:20:58.874Z,3.08
2023-01-29T14:25:05.830Z,2.89
2023-01-29T14:29:29.066Z,2.86
2023-01-29T14:33:40.421Z,2.93
2023-01-29T14:37:49.116Z,2.95
2023-01-29T14:41:53.556Z,2.80
2023-01-29T14:45:56.097Z,2.79
2023-01-29T14:50:00.119Z,2.75
2023-01-29T14:54:05.851Z,2.65
2023-01-29T14:58:15.879Z,2.69
2023-01-29T15:02:25.076Z,2.76
2023-01-29T15:06:33.348Z,2.84
2023-01-29T15:10:41.273Z,2.83
2023-01-29T15:14:53.150Z,2.83
2023-01-29T15:19:07.966Z,2.76
2023-01-29T15:23:27.080Z,2.75
2023-01-29T15:27:29.987Z,2.70
2023-01-29T15:31:35.804Z,2.61
2023-01-29T15:35:40.614Z,2.58
2023-01-29T15:39:43.816Z,2.64
2023-01-29T15:43:48.394Z,2.65
2023-01-29T15:47:53.695Z,2.53
2023-01-29T15:51:58.415Z,2.46
2023-01-29T15:56:02.171Z,2.48
2023-01-29T16:00:08.133Z,2.52
2023-01-29T16:04:22.497Z,2.51
2023-01-29T16:08:27.498Z,2.31
2023-01-29T16:12:30.055Z,2.35
2023-01-29T16:16:32.802Z,2.19
2023-01-29T16:20:44.133Z,2.10
2023-01-29T16:24:47.864Z,1.95
2023-01-29T16:28:50.648Z,1.97
2023-01-29T16:32:53.367Z,1.88
2023-01-29T16:36:58.175Z,1.81
2023-01-29T16:41:14.459Z,1.80
2023-01-29T16:45:34.938Z,1.92
2023-01-29T16:49:45.674Z,1.94
2023-01-29T16:53:59.578Z,1.92
2023-01-29T16:58:12.069Z,1.94
2023-01-29T17:02:24.387Z,1.88
2023-01-29T17:06:27.700Z,1.80
2023-01-29T17:10:31.923Z,1.83
2023-01-29T17:14:35.915Z,1.88
2023-01-29T17:18:38.865Z,1.89
2023-01-29T17:22:41.365Z,1.89
2023-01-29T17:26:45.532Z,1.96
2023-01-29T17:31:00.231Z,1.92
2023-01-29T17:35:08.303Z,1.98
2023-01-29T17:39:17.316Z,2.01
2023-01-29T17:43:21.154Z,2.00
2023-01-29T17:47:23.692Z,2.05
2023-01-29T17:51:26.202Z,2.05
2023-01-29T17:55:28.699Z,2.14
2023-01-29T17:59:34.520Z,2.04
2023-01-29T18:03:37.063Z,2.10
2023-01-29T18:07:40.705Z,1.99
2023-01-29T18:11:44.003Z,1.90
2023-01-29T18:15:47.863Z,1.91
2023-01-29T18:19:50.473Z,1.78
2023-01-29T18:23:52.983Z,1.75
2023-01-29T18:27:55.528Z,1.78
2023-01-29T18:31:59.462Z,1.73
2023-01-29T18:36:04.728Z,1.72
2023-01-29T18:40:08.690Z,1.74
2023-01-29T18:44:11.334Z,1.55
2023-01-29T18:48:15.195Z,1.47
2023-01-29T18:52:17.729Z,1.47
2023-01-29T18:56:20.821Z,1.52
2023-01-29T19:00:23.673Z,1.51
2023-01-29T19:04:27.621Z,1.50
2023-01-29T19:08:30.163Z,1.40
2023-01-29T19:12:33.734Z,1.44
2023-01-29T19:16:36.272Z,1.49
2023-01-29T19:20:42.370Z,1.49
2023-01-29T19:24:45.778Z,1.37
2023-01-29T19:28:48.217Z,1.53
2023-01-29T19:32:50.723Z,1.45
2023-01-29T19:36:54.569Z,1.57
2023-01-29T19:40:57.077Z,1.54
2023-01-29T19:44:59.590Z,1.50
2023-01-29T19:49:03.493Z,1.53
2023-01-29T19:53:07.329Z,1.47
2023-01-29T19:57:09.887Z,1.39
2023-01-29T20:01:15.509Z,1.55
2023-01-29T20:05:18.695Z,1.52
2023-01-29T20:09:22.619Z,1.58
2023-01-29T20:13:25.431Z,1.50
2023-01-29T20:17:27.935Z,1.43
2023-01-29T20:21:30.498Z,1.49
2023-01-29T20:25:35.571Z,1.44
2023-01-29T20:29:38.473Z,1.43
2023-01-29T20:33:41.659Z,1.39
2023-01-29T20:37:44.155Z,1.37
2023-01-29T20:41:48.032Z,1.37
2023-01-29T20:45:50.574Z,1.39
2023-01-29T20:49:53.091Z,1.40
2023-01-29T20:53:56.337Z,1.51
2023-01-29T20:58:06.201Z,1.41
2023-01-29T21:02:11.639Z,1.34
2023-01-29T21:06:14.887Z,1.48
2023-01-29T21:10:18.278Z,1.51
2023-01-29T21:14:22.313Z,1.55
2023-01-29T21:18:25.664Z,1.39
2023-01-29T21:22:28.043Z,1.44
2023-01-29T21:26:30.599Z,1.40
2023-01-29T21:30:34.785Z,1.38
2023-01-29T21:34:37.313Z,1.48
2023-01-29T21:38:40.102Z,1.45
2023-01-29T21:43:00.462Z,1.47
2023-01-29T21:47:12.166Z,1.47
2023-01-29T21:51:15.334Z,1.46
2023-01-29T21:55:18.842Z,1.46
2023-01-29T21:59:21.617Z,1.44
